Time;durP1;ratioP1;P1;durP2;ratioP2;P2;SDS_P1;SDS_P2;PMS_P1;PMS_P2;Temp;Humidity;BMP_temperature;BMP_pressure;BME280_temperature;BME280_humidity;BME280_pressure;Samples;Min_cycle;Max_cycle;Signal;HPM_P1;HPM_P2
2022/09/12 00:00:32;;;;;;;2.30;1.90;;;;;;;;;;4531401;28;20159;-64
2022/09/12 00:02:42;;;;;;;2.00;1.75;;;;;;;;;;4547043;28;35363;-64
2022/09/12 00:04:53;;;;;;;2.67;2.10;;;;;;;;;;4545938;28;20048;-64
2022/09/12 00:07:03;;;;;;;2.17;1.80;;;;;;;;;;4547034;28;23295;-64
2022/09/12 00:09:14;;;;;;;3.28;2.22;;;;;;;;;;4548114;28;20041;-64
2022/09/12 00:11:25;;;;;;;2.78;2.00;;;;;;;;;;4529438;28;20105;-64
2022/09/12 00:13:37;;;;;;;2.55;2.17;;;;;;;;;;4521827;28;20034;-64
2022/09/12 00:15:47;;;;;;;2.20;1.70;;;;;;;;;;4528571;28;21285;-64
2022/09/12 00:17:57;;;;;;;2.50;2.10;;;;;;;;;;4527481;28;25936;-64
2022/09/12 00:20:09;;;;;;;2.78;2.15;;;;;;;;;;4547165;28;20583;-64
2022/09/12 00:22:19;;;;;;;2.33;1.80;;;;;;;;;;4547385;28;20029;-64
2022/09/12 00:24:30;;;;;;;2.38;2.17;;;;;;;;;;4546357;28;20041;-64
2022/09/12 00:26:40;;;;;;;3.45;2.08;;;;;;;;;;4547523;28;20041;-64
2022/09/12 00:28:51;;;;;;;2.58;2.00;;;;;;;;;;4548157;28;20037;-64
2022/09/12 00:31:10;;;;;;;2.42;1.88;;;;;;;;;;4546026;28;20053;-64
2022/09/12 00:33:20;;;;;;;1.90;1.60;;;;;;;;;;4546315;28;20025;-64
2022/09/12 00:35:31;;;;;;;2.83;1.90;;;;;;;;;;4547420;28;20045;-64
2022/09/12 00:37:41;;;;;;;2.33;1.83;;;;;;;;;;4546841;28;20041;-64
2022/09/12 00:39:51;;;;;;;2.10;1.90;;;;;;;;;;4528659;28;20112;-64
2022/09/12 00:42:02;;;;;;;1.83;1.65;;;;;;;;;;4546976;28;20044;-64
2022/09/12 00:44:21;;;;;;;2.00;1.60;;;;;;;;;;4546347;28;20589;-64
2022/09/12 00:46:46;;;;;;;2.00;1.80;;;;;;;;;;4546870;28;20104;-64
2022/09/12 00:49:05;;;;;;;2.28;1.90;;;;;;;;;;4538514;28;20033;-64
2022/09/12 00:51:16;;;;;;;2.17;1.80;;;;;;;;;;4528559;28;20557;-63
2022/09/12 00:53:26;;;;;;;3.05;2.13;;;;;;;;;;4514979;28;20024;-64
2022/09/12 00:55:42;;;;;;;2.53;1.98;;;;;;;;;;4547238;28;38059;-63
2022/09/12 00:57:56;;;;;;;2.90;2.10;;;;;;;;;;4528100;28;20063;-64
2022/09/12 01:00:17;;;;;;;2.50;1.85;;;;;;;;;;4528760;28;20071;-64
2022/09/12 01:02:28;;;;;;;1.98;1.67;;;;;;;;;;4545383;28;20074;-64
2022/09/12 01:04:40;;;;;;;2.85;1.85;;;;;;;;;;4547968;28;20035;-64
2022/09/12 01:06:50;;;;;;;2.08;1.67;;;;;;;;;;4547094;28;20028;-64
2022/09/12 01:09:03;;;;;;;2.40;2.00;;;;;;;;;;4545934;28;29555;-63
2022/09/12 01:11:14;;;;;;;2.38;1.90;;;;;;;;;;4527064;28;20042;-64
2022/09/12 01:13:25;;;;;;;2.25;1.60;;;;;;;;;;4529115;28;20029;-64
2022/09/12 01:15:37;;;;;;;2.95;2.00;;;;;;;;;;4546496;28;21093;-64
2022/09/12 01:17:53;;;;;;;2.40;1.95;;;;;;;;;;4538638;28;20029;-64
2022/09/12 01:20:20;;;;;;;2.53;2.05;;;;;;;;;;4527711;28;20041;-64
2022/09/12 01:22:37;;;;;;;2.60;2.10;;;;;;;;;;4516551;28;20053;-64
2022/09/12 01:25:11;;;;;;;2.42;2.10;;;;;;;;;;4545965;28;20081;-63
2022/09/12 01:27:27;;;;;;;2.72;2.10;;;;;;;;;;4548091;28;20041;-64
2022/09/12 01:30:16;;;;;;;2.45;2.03;;;;;;;;;;4546228;28;20065;-64
2022/09/12 01:32:44;;;;;;;2.30;1.90;;;;;;;;;;4546883;28;20029;-63
2022/09/12 01:35:07;;;;;;;2.80;2.13;;;;;;;;;;4547113;28;20151;-63
2022/09/12 01:37:32;;;;;;;2.47;1.90;;;;;;;;;;4546742;28;20028;-63
2022/09/12 01:39:50;;;;;;;2.13;1.85;;;;;;;;;;4546752;28;21147;-64
2022/09/12 01:42:21;;;;;;;2.10;1.80;;;;;;;;;;4530521;28;20041;-63
2022/09/12 01:44:49;;;;;;;2.17;1.63;;;;;;;;;;4537575;28;20037;-64
2022/09/12 01:47:08;;;;;;;2.20;1.70;;;;;;;;;;4527341;28;20041;-63
2022/09/12 01:49:21;;;;;;;2.45;2.00;;;;;;;;;;4545474;28;20029;-64
2022/09/12 01:51:37;;;;;;;2.95;2.00;;;;;;;;;;4545312;28;20041;-64
2022/09/12 01:53:52;;;;;;;2.53;2.05;;;;;;;;;;4548388;28;20624;-64
2022/09/12 01:56:08;;;;;;;1.92;1.70;;;;;;;;;;4527813;28;20033;-63
2022/09/12 01:58:42;;;;;;;4.10;2.03;;;;;;;;;;4528471;28;20078;-63
2022/09/12 02:01:01;;;;;;;2.30;1.83;;;;;;;;;;4537965;28;20029;-63
2022/09/12 02:03:23;;;;;;;2.47;1.98;;;;;;;;;;4530067;28;20689;-64
2022/09/12 02:05:43;;;;;;;2.78;2.10;;;;;;;;;;4531295;28;20033;-64
2022/09/12 02:08:34;;;;;;;2.47;1.88;;;;;;;;;;4545116;28;20126;-64
2022/09/12 02:11:11;;;;;;;2.42;2.00;;;;;;;;;;4465112;28;20214;-63
2022/09/12 02:13:26;;;;;;;2.60;2.17;;;;;;;;;;4518862;28;20071;-64
2022/09/12 02:15:39;;;;;;;2.55;1.90;;;;;;;;;;4521610;28;20041;-64
2022/09/12 02:17:51;;;;;;;2.65;2.08;;;;;;;;;;4521285;28;20022;-64
2022/09/12 02:20:09;;;;;;;2.80;2.00;;;;;;;;;;4545889;28;39513;-64
2022/09/12 02:22:22;;;;;;;2.50;2.10;;;;;;;;;;4528412;28;20042;-64
2022/09/12 02:24:36;;;;;;;2.90;2.10;;;;;;;;;;4528677;28;21008;-64
2022/09/12 02:26:49;;;;;;;2.35;1.90;;;;;;;;;;4530213;28;20076;-63
2022/09/12 02:29:00;;;;;;;2.53;1.92;;;;;;;;;;4529330;28;20295;-63
2022/09/12 02:31:14;;;;;;;2.72;2.00;;;;;;;;;;4528267;28;20104;-64
2022/09/12 02:33:39;;;;;;;2.47;2.00;;;;;;;;;;4546147;28;20110;-63
2022/09/12 02:35:56;;;;;;;2.55;1.95;;;;;;;;;;4546688;28;20083;-63
2022/09/12 02:38:23;;;;;;;2.33;1.83;;;;;;;;;;4547238;28;20028;-63
2022/09/12 02:40:34;;;;;;;2.97;1.90;;;;;;;;;;4545164;28;20037;-63
2022/09/12 02:42:44;;;;;;;2.30;1.98;;;;;;;;;;4515344;28;20025;-63
2022/09/12 02:44:55;;;;;;;2.63;1.92;;;;;;;;;;4544367;28;20041;-63
2022/09/12 02:47:41;;;;;;;2.80;2.15;;;;;;;;;;4544149;28;25193;-63
2022/09/12 02:49:52;;;;;;;3.35;2.20;;;;;;;;;;4545929;28;20060;-63
2022/09/12 02:52:03;;;;;;;2.80;2.15;;;;;;;;;;4527854;28;20835;-63
2022/09/12 02:54:15;;;;;;;2.47;2.00;;;;;;;;;;4545194;28;22857;-63
2022/09/12 02:56:28;;;;;;;2.80;2.28;;;;;;;;;;4530049;28;20132;-63
2022/09/12 02:58:38;;;;;;;2.70;1.95;;;;;;;;;;4545920;28;20760;-63
2022/09/12 03:00:57;;;;;;;2.78;2.10;;;;;;;;;;4545892;28;36086;-63
2022/09/12 03:03:40;;;;;;;3.17;2.20;;;;;;;;;;4530505;28;20519;-63
2022/09/12 03:05:55;;;;;;;2.92;2.25;;;;;;;;;;4525476;28;20060;-63
2022/09/12 03:08:30;;;;;;;3.53;2.67;;;;;;;;;;4530704;28;20025;-63
2022/09/12 03:10:56;;;;;;;3.28;2.10;;;;;;;;;;4549593;28;20044;-63
2022/09/12 03:13:30;;;;;;;3.15;2.30;;;;;;;;;;4548857;28;20873;-63
2022/09/12 03:15:43;;;;;;;3.28;2.40;;;;;;;;;;4533807;28;20033;-63
2022/09/12 03:18:35;;;;;;;3.08;2.28;;;;;;;;;;4546622;28;20075;-63
2022/09/12 03:21:06;;;;;;;3.42;2.40;;;;;;;;;;4495495;28;20181;-63
2022/09/12 03:23:24;;;;;;;3.38;2.53;;;;;;;;;;4537364;28;20187;-64
2022/09/12 03:25:37;;;;;;;2.45;2.15;;;;;;;;;;4547492;28;20041;-63
2022/09/12 03:27:59;;;;;;;3.25;2.40;;;;;;;;;;4549941;28;20037;-63
2022/09/12 03:30:11;;;;;;;3.08;2.22;;;;;;;;;;4516861;28;20042;-63
2022/09/12 03:32:47;;;;;;;2.30;2.00;;;;;;;;;;4547981;28;20075;-63
2022/09/12 03:34:57;;;;;;;2.42;1.80;;;;;;;;;;4547437;28;20140;-63
2022/09/12 03:37:08;;;;;;;2.65;2.05;;;;;;;;;;4549207;28;20136;-63
2022/09/12 03:39:19;;;;;;;2.60;2.25;;;;;;;;;;4548851;28;20044;-63
2022/09/12 03:41:29;;;;;;;3.03;2.08;;;;;;;;;;4528092;28;20152;-63
2022/09/12 03:43:40;;;;;;;3.15;2.20;;;;;;;;;;4548031;28;20094;-64
2022/09/12 03:45:53;;;;;;;2.97;2.20;;;;;;;;;;4549562;28;20051;-63
2022/09/12 03:48:04;;;;;;;2.92;2.42;;;;;;;;;;4548034;28;20040;-63
2022/09/12 03:50:15;;;;;;;3.08;2.40;;;;;;;;;;4549661;28;20144;-63
2022/09/12 03:52:25;;;;;;;2.90;2.15;;;;;;;;;;4548666;28;20102;-64
2022/09/12 03:54:36;;;;;;;3.08;2.47;;;;;;;;;;4547825;28;28474;-63
2022/09/12 03:56:46;;;;;;;3.70;2.80;;;;;;;;;;4531916;28;40186;-63
2022/09/12 03:58:57;;;;;;;3.15;2.53;;;;;;;;;;4549331;28;20033;-63
2022/09/12 04:01:13;;;;;;;3.08;2.33;;;;;;;;;;4549188;28;20056;-63
2022/09/12 04:03:23;;;;;;;3.28;2.33;;;;;;;;;;4531295;28;20044;-63
2022/09/12 04:05:34;;;;;;;3.25;2.30;;;;;;;;;;4548367;28;20079;-63
2022/09/12 04:07:45;;;;;;;3.45;2.47;;;;;;;;;;4548488;28;20119;-63
2022/09/12 04:09:55;;;;;;;2.90;2.22;;;;;;;;;;4548259;28;21892;-62
2022/09/12 04:12:06;;;;;;;2.92;2.20;;;;;;;;;;4547509;28;20245;-63
2022/09/12 04:14:17;;;;;;;2.90;2.30;;;;;;;;;;4548959;28;20072;-63
2022/09/12 04:16:27;;;;;;;3.70;2.50;;;;;;;;;;4548310;28;20030;-63
2022/09/12 04:18:37;;;;;;;3.10;2.38;;;;;;;;;;4546685;28;21823;-63
2022/09/12 04:20:48;;;;;;;3.05;2.25;;;;;;;;;;4548318;28;20480;-63
2022/09/12 04:22:58;;;;;;;3.60;2.58;;;;;;;;;;4547521;28;20036;-63
2022/09/12 04:25:09;;;;;;;3.08;2.25;;;;;;;;;;4546264;28;29405;-62
2022/09/12 04:27:19;;;;;;;2.90;2.30;;;;;;;;;;4547081;28;20745;-63
2022/09/12 04:29:30;;;;;;;3.03;2.40;;;;;;;;;;4528983;28;20408;-63
2022/09/12 04:31:41;;;;;;;2.67;2.20;;;;;;;;;;4531674;28;20547;-62
2022/09/12 04:33:56;;;;;;;2.83;2.03;;;;;;;;;;4529358;28;20041;-62
2022/09/12 04:36:15;;;;;;;3.08;2.30;;;;;;;;;;4515125;28;20739;-63
2022/09/12 04:38:25;;;;;;;2.95;2.20;;;;;;;;;;4548582;28;20021;-63
2022/09/12 04:40:36;;;;;;;3.15;2.05;;;;;;;;;;4547824;28;20494;-63
2022/09/12 04:42:47;;;;;;;2.65;2.13;;;;;;;;;;4528804;28;20075;-63
2022/09/12 04:44:57;;;;;;;2.60;1.90;;;;;;;;;;4546578;28;20095;-62
2022/09/12 04:47:08;;;;;;;2.38;1.70;;;;;;;;;;4530265;28;20065;-63
2022/09/12 04:49:18;;;;;;;2.25;1.80;;;;;;;;;;4547299;28;20040;-63
2022/09/12 04:51:31;;;;;;;2.63;1.88;;;;;;;;;;4546473;28;20032;-63
2022/09/12 04:53:42;;;;;;;2.00;1.55;;;;;;;;;;4538037;28;20108;-63
2022/09/12 04:55:52;;;;;;;2.40;1.98;;;;;;;;;;4545750;28;20644;-63
2022/09/12 04:58:03;;;;;;;2.30;1.60;;;;;;;;;;4547840;28;20123;-62
2022/09/12 05:00:14;;;;;;;2.60;2.10;;;;;;;;;;4527546;28;20033;-62
2022/09/12 05:02:24;;;;;;;3.72;2.38;;;;;;;;;;4547904;28;20036;-63
2022/09/12 05:04:35;;;;;;;2.85;2.30;;;;;;;;;;4546927;28;20054;-63
2022/09/12 05:06:46;;;;;;;2.75;2.20;;;;;;;;;;4526826;28;20407;-62
2022/09/12 05:08:58;;;;;;;3.05;2.25;;;;;;;;;;4546641;28;20033;-62
2022/09/12 05:11:20;;;;;;;3.40;2.42;;;;;;;;;;4537338;28;20045;-62
2022/09/12 05:13:31;;;;;;;3.63;2.33;;;;;;;;;;4547205;28;20116;-63
2022/09/12 05:15:41;;;;;;;3.33;2.33;;;;;;;;;;4546052;28;20115;-62
2022/09/12 05:17:51;;;;;;;2.97;2.35;;;;;;;;;;4531115;28;20041;-63
2022/09/12 05:20:02;;;;;;;3.45;2.55;;;;;;;;;;4545718;28;20130;-63
2022/09/12 05:22:13;;;;;;;3.25;2.40;;;;;;;;;;4545831;28;20044;-62
2022/09/12 05:24:23;;;;;;;2.78;2.28;;;;;;;;;;4548651;28;20032;-63
2022/09/12 05:26:34;;;;;;;4.13;2.33;;;;;;;;;;4546470;28;20041;-62
2022/09/12 05:28:45;;;;;;;3.08;2.50;;;;;;;;;;4544696;28;20036;-63
2022/09/12 05:31:15;;;;;;;2.70;2.20;;;;;;;;;;4526049;28;20037;-63
2022/09/12 05:33:26;;;;;;;3.63;2.53;;;;;;;;;;4525385;28;20029;-63
2022/09/12 05:35:37;;;;;;;3.10;2.33;;;;;;;;;;4526351;28;20033;-63
2022/09/12 05:37:47;;;;;;;3.28;2.53;;;;;;;;;;4545750;28;20044;-63
2022/09/12 05:39:58;;;;;;;3.03;2.55;;;;;;;;;;4545782;28;24641;-63
2022/09/12 05:42:09;;;;;;;3.58;2.80;;;;;;;;;;4546613;28;20574;-62
2022/09/12 05:44:19;;;;;;;4.00;2.88;;;;;;;;;;4546498;28;20041;-63
2022/09/12 05:46:35;;;;;;;3.25;2.55;;;;;;;;;;4547393;28;20025;-62
2022/09/12 05:48:46;;;;;;;3.50;2.63;;;;;;;;;;4531936;28;21109;-63
2022/09/12 05:51:06;;;;;;;3.53;2.60;;;;;;;;;;4545466;28;20036;-62
2022/09/12 05:53:16;;;;;;;3.85;2.70;;;;;;;;;;4533654;28;20033;-62
2022/09/12 05:55:27;;;;;;;3.75;2.75;;;;;;;;;;4537690;28;20570;-62
2022/09/12 05:57:38;;;;;;;4.57;2.72;;;;;;;;;;4545965;28;20199;-62
2022/09/12 05:59:49;;;;;;;2.97;2.45;;;;;;;;;;4547107;28;20032;-62
2022/09/12 06:01:59;;;;;;;3.33;2.45;;;;;;;;;;4546941;28;20037;-62
2022/09/12 06:04:10;;;;;;;3.88;2.67;;;;;;;;;;4530166;28;20041;-62
2022/09/12 06:06:23;;;;;;;4.22;2.50;;;;;;;;;;4531149;28;20104;-62
2022/09/12 06:08:35;;;;;;;3.60;2.67;;;;;;;;;;4526837;28;20056;-62
2022/09/12 06:10:45;;;;;;;4.45;3.05;;;;;;;;;;4520597;28;20046;-62
2022/09/12 06:12:56;;;;;;;3.80;2.33;;;;;;;;;;4546683;28;20807;-62
2022/09/12 06:15:07;;;;;;;3.45;2.67;;;;;;;;;;4546170;28;20036;-62
2022/09/12 06:17:17;;;;;;;3.15;2.33;;;;;;;;;;4545887;28;20037;-62
2022/09/12 06:19:28;;;;;;;3.05;2.30;;;;;;;;;;4544672;28;20120;-62
2022/09/12 06:21:38;;;;;;;3.33;1.80;;;;;;;;;;4525570;28;20067;-62
2022/09/12 06:23:49;;;;;;;3.60;2.53;;;;;;;;;;4545223;28;20037;-62
2022/09/12 06:26:00;;;;;;;2.83;2.10;;;;;;;;;;4547311;28;20044;-63
2022/09/12 06:28:10;;;;;;;2.65;2.10;;;;;;;;;;4545824;28;20033;-62
2022/09/12 06:30:21;;;;;;;2.83;1.98;;;;;;;;;;4544911;28;22839;-62
2022/09/12 06:32:31;;;;;;;3.38;2.28;;;;;;;;;;4544201;28;20037;-62
2022/09/12 06:34:42;;;;;;;2.80;2.20;;;;;;;;;;4537192;28;20494;-63
2022/09/12 06:36:52;;;;;;;3.13;2.40;;;;;;;;;;4545689;28;20593;-62
2022/09/12 06:39:09;;;;;;;3.72;2.50;;;;;;;;;;4546568;28;24627;-62
2022/09/12 06:41:20;;;;;;;3.15;2.55;;;;;;;;;;4536890;28;20032;-62
2022/09/12 06:43:31;;;;;;;3.30;2.58;;;;;;;;;;4547503;28;20047;-62
2022/09/12 06:45:48;;;;;;;3.85;2.40;;;;;;;;;;4545670;28;20043;-63
2022/09/12 06:47:59;;;;;;;2.72;2.15;;;;;;;;;;4545671;28;20025;-62
2022/09/12 06:50:09;;;;;;;3.20;2.30;;;;;;;;;;4513813;28;20625;-63
2022/09/12 06:52:20;;;;;;;3.67;2.38;;;;;;;;;;4546148;28;20039;-63
2022/09/12 06:54:30;;;;;;;4.38;3.13;;;;;;;;;;4545576;28;20028;-62
2022/09/12 06:56:41;;;;;;;2.95;2.33;;;;;;;;;;4545607;28;20340;-63
2022/09/12 06:58:54;;;;;;;3.30;2.50;;;;;;;;;;4527722;28;20853;-63
2022/09/12 07:01:11;;;;;;;3.13;2.30;;;;;;;;;;4543095;28;20154;-62
2022/09/12 07:03:21;;;;;;;2.63;1.90;;;;;;;;;;4531936;28;20141;-62
2022/09/12 07:05:33;;;;;;;3.03;2.15;;;;;;;;;;4545923;28;20036;-63
2022/09/12 07:07:43;;;;;;;3.20;2.10;;;;;;;;;;4530079;28;20031;-62
2022/09/12 07:09:56;;;;;;;2.85;2.05;;;;;;;;;;4521012;28;20048;-63
2022/09/12 07:12:07;;;;;;;3.00;2.20;;;;;;;;;;4528657;28;20040;-61
2022/09/12 07:14:17;;;;;;;2.63;2.10;;;;;;;;;;4544795;28;20032;-62
2022/09/12 07:16:28;;;;;;;3.50;2.50;;;;;;;;;;4545853;28;20032;-62
2022/09/12 07:18:39;;;;;;;2.90;2.10;;;;;;;;;;4545260;28;21358;-62
2022/09/12 07:20:49;;;;;;;2.80;2.20;;;;;;;;;;4545413;28;20103;-63
2022/09/12 07:23:00;;;;;;;3.22;2.45;;;;;;;;;;4546626;28;20036;-63
2022/09/12 07:25:10;;;;;;;2.92;2.20;;;;;;;;;;4546260;28;20037;-64
2022/09/12 07:27:21;;;;;;;3.17;2.30;;;;;;;;;;4546754;28;20090;-63
2022/09/12 07:29:31;;;;;;;2.33;2.10;;;;;;;;;;4545481;28;20513;-63
2022/09/12 07:31:42;;;;;;;2.70;2.15;;;;;;;;;;4546061;28;20029;-63
2022/09/12 07:33:53;;;;;;;3.90;2.70;;;;;;;;;;4513635;28;20038;-63
2022/09/12 07:36:13;;;;;;;2.80;2.10;;;;;;;;;;4545978;28;20041;-63
2022/09/12 07:38:24;;;;;;;3.22;2.30;;;;;;;;;;4527560;28;20038;-62
2022/09/12 07:40:34;;;;;;;2.60;2.20;;;;;;;;;;4544140;28;20029;-63
2022/09/12 07:42:46;;;;;;;3.42;2.10;;;;;;;;;;4545753;28;20040;-63
2022/09/12 07:44:57;;;;;;;3.00;2.58;;;;;;;;;;4546637;28;20765;-63
2022/09/12 07:47:07;;;;;;;2.97;2.15;;;;;;;;;;4544583;28;29199;-63
2022/09/12 07:49:18;;;;;;;3.45;2.40;;;;;;;;;;4527040;28;20037;-63
2022/09/12 07:51:29;;;;;;;2.97;2.13;;;;;;;;;;4546109;28;20060;-63
2022/09/12 07:53:40;;;;;;;3.35;2.45;;;;;;;;;;4530119;28;20285;-63
2022/09/12 07:55:54;;;;;;;2.88;2.30;;;;;;;;;;4549968;28;20028;-63
2022/09/12 07:58:05;;;;;;;2.75;2.08;;;;;;;;;;4548986;28;20609;-63
2022/09/12 08:00:16;;;;;;;3.30;2.60;;;;;;;;;;4549199;28;20033;-62
2022/09/12 08:02:27;;;;;;;3.55;2.50;;;;;;;;;;4532014;28;20160;-63
2022/09/12 08:04:37;;;;;;;3.08;2.20;;;;;;;;;;4548633;28;20052;-63
2022/09/12 08:07:28;;;;;;;3.45;2.60;;;;;;;;;;4547075;28;20047;-63
2022/09/12 08:09:39;;;;;;;4.13;2.30;;;;;;;;;;4548045;28;20075;-63
2022/09/12 08:11:49;;;;;;;3.70;2.70;;;;;;;;;;4548993;28;20062;-63
2022/09/12 08:14:01;;;;;;;3.30;2.25;;;;;;;;;;4547565;28;20521;-63
2022/09/12 08:16:15;;;;;;;3.50;2.50;;;;;;;;;;4511363;28;20025;-63
2022/09/12 08:18:27;;;;;;;3.33;2.70;;;;;;;;;;4549017;28;20041;-63
2022/09/12 08:20:37;;;;;;;3.10;2.60;;;;;;;;;;4546769;28;20039;-63
2022/09/12 08:22:48;;;;;;;3.45;2.60;;;;;;;;;;4548037;28;20512;-63
2022/09/12 08:24:58;;;;;;;3.10;2.30;;;;;;;;;;4547568;28;20040;-63
2022/09/12 08:27:09;;;;;;;3.63;2.38;;;;;;;;;;4529845;28;20096;-63
2022/09/12 08:29:20;;;;;;;2.90;2.17;;;;;;;;;;4546918;28;20036;-63
2022/09/12 08:31:35;;;;;;;3.78;2.45;;;;;;;;;;4547790;28;20044;-63
2022/09/12 08:33:45;;;;;;;3.92;2.50;;;;;;;;;;4548145;28;20044;-63
2022/09/12 08:36:03;;;;;;;3.08;2.30;;;;;;;;;;4546894;28;24152;-63
2022/09/12 08:38:13;;;;;;;3.08;2.22;;;;;;;;;;4530361;28;20430;-63
2022/09/12 08:40:23;;;;;;;3.60;2.42;;;;;;;;;;4547535;28;29619;-63
2022/09/12 08:43:02;;;;;;;4.32;2.60;;;;;;;;;;4547002;28;20033;-63
2022/09/12 08:45:17;;;;;;;3.03;2.30;;;;;;;;;;4533916;28;20044;-63
2022/09/12 08:47:43;;;;;;;3.67;2.60;;;;;;;;;;4529066;28;20138;-63
2022/09/12 08:50:01;;;;;;;3.17;2.00;;;;;;;;;;4532544;28;20677;-63
2022/09/12 08:52:16;;;;;;;3.13;2.38;;;;;;;;;;4547550;28;20036;-63
2022/09/12 08:54:28;;;;;;;2.65;2.00;;;;;;;;;;4533137;28;20114;-63
2022/09/12 08:56:38;;;;;;;3.17;2.15;;;;;;;;;;4548204;28;20690;-63
2022/09/12 08:58:48;;;;;;;3.33;2.70;;;;;;;;;;4546544;28;20033;-63
2022/09/12 09:01:02;;;;;;;3.58;2.65;;;;;;;;;;4521748;28;20052;-63
2022/09/12 09:03:21;;;;;;;3.85;2.40;;;;;;;;;;4547578;28;20037;-64
2022/09/12 09:05:50;;;;;;;4.00;2.40;;;;;;;;;;4529132;28;20037;-63
2022/09/12 09:08:16;;;;;;;2.88;2.20;;;;;;;;;;4538612;28;20068;-63
2022/09/12 09:10:52;;;;;;;3.05;2.47;;;;;;;;;;4532887;28;20053;-63
2022/09/12 09:16:43;;;;;;;3.70;2.53;;;;;;;;;;4512110;28;20057;-64
2022/09/12 09:18:54;;;;;;;3.90;2.60;;;;;;;;;;4546323;28;20186;-63
2022/09/12 09:21:14;;;;;;;3.97;2.65;;;;;;;;;;4532183;28;20037;-63
2022/09/12 09:23:34;;;;;;;3.58;2.78;;;;;;;;;;4545427;28;20041;-64
2022/09/12 09:25:58;;;;;;;3.65;2.40;;;;;;;;;;4546702;28;20088;-63
2022/09/12 09:28:16;;;;;;;4.05;2.45;;;;;;;;;;4546441;28;20028;-63
2022/09/12 09:30:27;;;;;;;3.08;2.42;;;;;;;;;;4537574;28;20056;-63
2022/09/12 09:32:39;;;;;;;3.53;2.17;;;;;;;;;;4546281;28;20036;-63
2022/09/12 09:34:51;;;;;;;3.53;2.30;;;;;;;;;;4545355;28;20036;-64
2022/09/12 09:37:18;;;;;;;3.38;2.42;;;;;;;;;;4526636;28;20044;-64
2022/09/12 09:39:39;;;;;;;3.60;2.58;;;;;;;;;;4547019;28;20037;-64
2022/09/12 09:42:07;;;;;;;4.50;2.90;;;;;;;;;;4532705;28;20040;-64
2022/09/12 09:44:18;;;;;;;3.70;2.58;;;;;;;;;;4547934;28;20028;-64
2022/09/12 09:46:28;;;;;;;4.13;2.55;;;;;;;;;;4548362;28;20344;-63
2022/09/12 09:48:47;;;;;;;3.25;2.42;;;;;;;;;;4547708;28;20474;-63
2022/09/12 09:51:00;;;;;;;3.75;2.47;;;;;;;;;;4532057;28;20041;-66
2022/09/12 09:53:47;;;;;;;3.55;2.53;;;;;;;;;;4532648;28;20120;-64
2022/09/12 09:56:00;;;;;;;3.88;2.60;;;;;;;;;;4531650;28;20041;-63
2022/09/12 09:58:10;;;;;;;3.55;2.55;;;;;;;;;;4514701;28;20100;-64
2022/09/12 10:00:26;;;;;;;3.50;2.65;;;;;;;;;;4547151;28;20041;-63
2022/09/12 10:02:37;;;;;;;3.53;2.50;;;;;;;;;;4531202;28;20568;-61
2022/09/12 10:04:57;;;;;;;3.97;2.40;;;;;;;;;;4545305;28;20493;-62
2022/09/12 10:07:18;;;;;;;4.32;2.55;;;;;;;;;;4547300;28;20921;-64
2022/09/12 10:09:33;;;;;;;3.67;2.70;;;;;;;;;;4530626;28;20044;-64
2022/09/12 10:11:44;;;;;;;4.20;2.58;;;;;;;;;;4546640;28;20134;-64
2022/09/12 10:13:56;;;;;;;3.88;2.70;;;;;;;;;;4546500;28;20568;-64
2022/09/12 10:16:19;;;;;;;4.35;2.63;;;;;;;;;;4530386;28;20119;-65
2022/09/12 10:18:41;;;;;;;4.07;2.63;;;;;;;;;;4544732;28;20605;-68
2022/09/12 10:20:51;;;;;;;3.97;2.80;;;;;;;;;;4544381;28;21028;-64
2022/09/12 10:23:29;;;;;;;3.58;2.50;;;;;;;;;;4547567;28;20147;-64
2022/09/12 10:25:40;;;;;;;4.68;2.70;;;;;;;;;;4547000;28;20147;-65
2022/09/12 10:27:58;;;;;;;3.90;3.03;;;;;;;;;;4527031;28;20032;-65
2022/09/12 10:30:20;;;;;;;3.80;2.80;;;;;;;;;;4537651;28;20051;-65
2022/09/12 10:32:52;;;;;;;4.25;2.83;;;;;;;;;;4544196;28;20040;-63
2022/09/12 10:35:24;;;;;;;3.72;2.65;;;;;;;;;;4523896;28;20033;-65
2022/09/12 10:37:38;;;;;;;4.00;2.85;;;;;;;;;;4528368;28;21172;-65
2022/09/12 10:39:52;;;;;;;5.15;2.72;;;;;;;;;;4545839;28;20055;-65
2022/09/12 10:42:04;;;;;;;3.63;2.67;;;;;;;;;;4527305;28;20037;-65
2022/09/12 10:44:25;;;;;;;3.75;2.42;;;;;;;;;;4526875;28;20491;-65
2022/09/12 10:46:35;;;;;;;3.80;2.60;;;;;;;;;;4546195;28;20044;-65
2022/09/12 10:48:51;;;;;;;2.80;2.33;;;;;;;;;;4544849;28;20584;-65
2022/09/12 10:51:01;;;;;;;3.67;2.60;;;;;;;;;;4545162;28;20056;-65
2022/09/12 10:53:15;;;;;;;3.60;2.63;;;;;;;;;;4545778;28;20477;-65
2022/09/12 10:55:31;;;;;;;3.15;2.40;;;;;;;;;;4546155;28;20079;-65
2022/09/12 10:57:53;;;;;;;4.00;2.42;;;;;;;;;;4516311;28;20036;-65
2022/09/12 11:00:13;;;;;;;4.43;2.70;;;;;;;;;;4526024;28;20639;-65
2022/09/12 11:02:28;;;;;;;3.92;2.90;;;;;;;;;;4527766;28;20588;-65
2022/09/12 11:04:56;;;;;;;3.40;2.50;;;;;;;;;;4546567;28;20110;-65
2022/09/12 11:07:09;;;;;;;4.28;2.60;;;;;;;;;;4545800;28;20035;-65
2022/09/12 11:09:38;;;;;;;3.17;2.50;;;;;;;;;;4530880;28;20172;-65
2022/09/12 11:12:11;;;;;;;3.60;2.40;;;;;;;;;;4545285;28;20651;-65
2022/09/12 11:14:57;;;;;;;3.58;2.65;;;;;;;;;;4528035;28;20933;-65
2022/09/12 11:17:16;;;;;;;3.95;2.70;;;;;;;;;;4547059;28;20095;-66
2022/09/12 11:19:58;;;;;;;4.40;3.00;;;;;;;;;;4546817;28;21118;-65
2022/09/12 11:22:20;;;;;;;3.45;2.22;;;;;;;;;;4531853;28;21286;-66
2022/09/12 11:24:52;;;;;;;3.45;2.53;;;;;;;;;;4546075;28;20033;-66
2022/09/12 11:27:17;;;;;;;3.75;2.88;;;;;;;;;;4547115;28;20064;-65
2022/09/12 11:29:48;;;;;;;3.70;2.78;;;;;;;;;;4550491;28;20048;-65
2022/09/12 11:32:17;;;;;;;3.90;2.70;;;;;;;;;;4546980;28;20037;-65
2022/09/12 11:34:48;;;;;;;4.22;2.90;;;;;;;;;;4550902;28;20037;-66
2022/09/12 11:37:19;;;;;;;3.88;2.72;;;;;;;;;;4534263;28;21070;-65
2022/09/12 11:39:38;;;;;;;3.55;2.45;;;;;;;;;;4523152;28;20044;-65
2022/09/12 11:41:54;;;;;;;4.63;3.28;;;;;;;;;;4548179;28;20738;-65
2022/09/12 11:44:17;;;;;;;3.88;2.90;;;;;;;;;;4531432;28;20845;-65
2022/09/12 11:46:35;;;;;;;4.60;2.80;;;;;;;;;;4549007;28;20047;-64
2022/09/12 11:48:49;;;;;;;3.17;2.55;;;;;;;;;;4548582;28;20116;-64
2022/09/12 11:51:02;;;;;;;3.90;2.78;;;;;;;;;;4548018;28;20636;-64
2022/09/12 11:53:21;;;;;;;4.07;2.72;;;;;;;;;;4539820;28;20609;-65
2022/09/12 11:55:56;;;;;;;4.18;2.70;;;;;;;;;;4534476;28;21286;-65
2022/09/12 11:58:08;;;;;;;3.88;2.58;;;;;;;;;;4532376;28;20034;-64
2022/09/12 12:00:22;;;;;;;2.65;2.28;;;;;;;;;;4548802;28;20821;-64
2022/09/12 12:02:41;;;;;;;3.13;2.42;;;;;;;;;;4532248;28;20211;-65
2022/09/12 12:05:16;;;;;;;3.30;2.33;;;;;;;;;;4532823;28;20025;-64
2022/09/12 12:07:37;;;;;;;3.20;2.55;;;;;;;;;;4548649;28;20566;-65
2022/09/12 12:09:49;;;;;;;4.65;2.80;;;;;;;;;;4547090;28;20057;-65
2022/09/12 12:12:05;;;;;;;3.70;2.60;;;;;;;;;;4548195;28;21213;-65
2022/09/12 12:14:36;;;;;;;3.40;2.40;;;;;;;;;;4529394;28;20022;-65
2022/09/12 12:16:48;;;;;;;2.95;2.30;;;;;;;;;;4529427;28;20037;-65
2022/09/12 12:19:05;;;;;;;3.63;2.40;;;;;;;;;;4534513;28;20065;-65
2022/09/12 12:21:20;;;;;;;3.20;2.40;;;;;;;;;;4513016;28;20052;-65
2022/09/12 12:23:33;;;;;;;3.15;2.10;;;;;;;;;;4548477;28;20040;-64
2022/09/12 12:25:55;;;;;;;4.13;2.40;;;;;;;;;;4547412;28;20039;-64
2022/09/12 12:28:05;;;;;;;3.38;2.60;;;;;;;;;;4528556;28;20025;-65
2022/09/12 12:30:28;;;;;;;2.88;2.00;;;;;;;;;;4530086;28;20041;-65
2022/09/12 12:32:38;;;;;;;2.67;1.77;;;;;;;;;;4547470;28;20048;-65
2022/09/12 12:34:49;;;;;;;3.17;2.13;;;;;;;;;;4547444;28;20071;-65
2022/09/12 12:37:18;;;;;;;2.33;2.00;;;;;;;;;;4529622;28;20037;-64
2022/09/12 12:39:31;;;;;;;2.78;2.20;;;;;;;;;;4546374;28;20594;-64
2022/09/12 12:41:43;;;;;;;2.38;2.10;;;;;;;;;;4547381;28;20489;-65
2022/09/12 12:43:55;;;;;;;2.80;2.20;;;;;;;;;;4539429;28;20041;-64
2022/09/12 12:46:09;;;;;;;2.97;2.22;;;;;;;;;;4548249;28;20045;-64
2022/09/12 12:48:19;;;;;;;2.88;2.00;;;;;;;;;;4529970;28;20025;-65
2022/09/12 12:50:30;;;;;;;2.17;1.98;;;;;;;;;;4547822;28;20044;-64
2022/09/12 12:52:56;;;;;;;2.63;2.10;;;;;;;;;;4531450;28;20136;-64
2022/09/12 12:55:32;;;;;;;2.88;2.10;;;;;;;;;;4532897;28;20081;-65
2022/09/12 12:58:02;;;;;;;2.50;2.20;;;;;;;;;;4515721;28;20049;-64
2022/09/12 13:00:19;;;;;;;3.75;2.20;;;;;;;;;;4528141;28;20732;-64
2022/09/12 13:02:39;;;;;;;2.40;2.05;;;;;;;;;;4545780;28;20637;-64
2022/09/12 13:04:50;;;;;;;2.20;1.90;;;;;;;;;;4547801;28;20040;-65
2022/09/12 13:07:07;;;;;;;3.03;2.20;;;;;;;;;;4547750;28;20041;-64
2022/09/12 13:09:38;;;;;;;2.22;2.03;;;;;;;;;;4548442;28;20596;-64
2022/09/12 13:11:58;;;;;;;2.63;1.88;;;;;;;;;;4530360;28;20606;-64
2022/09/12 13:14:32;;;;;;;2.97;2.15;;;;;;;;;;4533208;28;20589;-64
2022/09/12 13:16:54;;;;;;;2.70;2.17;;;;;;;;;;4549022;28;20041;-64
2022/09/12 13:19:14;;;;;;;2.42;2.00;;;;;;;;;;4532641;28;20695;-65
2022/09/12 13:21:24;;;;;;;2.72;1.80;;;;;;;;;;4533732;28;20037;-64
2022/09/12 13:23:35;;;;;;;2.50;1.73;;;;;;;;;;4548041;28;20037;-64
2022/09/12 13:25:51;;;;;;;2.67;1.83;;;;;;;;;;4529070;28;20030;-64
2022/09/12 13:28:10;;;;;;;3.00;1.92;;;;;;;;;;4514306;28;20147;-64
2022/09/12 13:30:20;;;;;;;1.92;1.70;;;;;;;;;;4546711;28;20577;-64
2022/09/12 13:32:31;;;;;;;2.85;2.20;;;;;;;;;;4547231;28;20221;-64
2022/09/12 13:34:59;;;;;;;2.80;2.10;;;;;;;;;;4546601;28;24180;-64
2022/09/12 13:37:24;;;;;;;2.90;2.00;;;;;;;;;;4533188;28;20045;-64
2022/09/12 13:40:22;;;;;;;2.65;2.17;;;;;;;;;;4547055;28;20567;-64